Terminal Aerodrome Forecast
Issued by NWS Upton, NY

Current Version | Previous Version | Text Only | Print | Product List | Glossary On
Versions: 1 2 3 4 5 6 7 8 9 10 11 12 13 14 15 16 17 18 19 20 21 22 23 24 25 26 27 28 29 30
000
FTUS41 KOKX 110520
TAFLGA
TAF
KLGA 110520Z 1106/1212 19006KT P6SM OVC050
     FM110900 35005KT P6SM SCT025 OVC050
      TEMPO 1109/1113 5SM -SHRA BR BKN025 OVC050
     FM111300 01006KT P6SM VCSH SCT030 OVC050
     FM111600 35006KT P6SM SCT030 SCT050
     FM112200 16006KT P6SM SCT050
     FM120100 36008KT P6SM BKN250=

USA.gov is the U.S. government's official web portal to all federal, state and local government web resources and services.